Centerbrook, Connecticut
Current Conditions -  °F | °C
As of 11:35 AM on Saturday 22 Nov 2014 (Local Time) from KSNC Reporting Station
Clear Clear  
Wind Chill: -2°   Ceiling: Unl
Heat Index:   Visibility: 10mi
Dew Point: -10°   Wind: 10mph
Humidity: 41%   Direction: 230°SW
Pressure: 30.33"   Gusts: 23mph
Location:  41.35°N, 72.42°W
Report Text: KSNC 221635Z AUTO 23009G20KT 10SM CLR 02/M10 A3033 RMK AO2
Loading
Personal Weather Stations






























Interactive Weather Map New forecast layout! Learn more

10-Day Weather Forecast

Advertisements
Track Severe Weather on mobile